Time;durP1;ratioP1;P1;durP2;ratioP2;P2;SDS_P1;SDS_P2;PMS_P1;PMS_P2;Temp;Humidity;BMP_temperature;BMP_pressure;BME280_temperature;BME280_humidity;BME280_pressure;Samples;Min_cycle;Max_cycle;Signal;HPM_P1;HPM_P2
2022/03/23 00:01:42;;;;;;;15.73;10.80;;;0.30;99.90;;;;;;5098004;28;20647;-78
2022/03/23 00:04:08;;;;;;;14.50;10.03;;;0.10;99.90;;;;;;5097494;28;20245;-78
2022/03/23 00:06:37;;;;;;;16.63;9.90;;;-0.10;99.90;;;;;;5097712;28;20196;-77
2022/03/23 00:09:05;;;;;;;13.40;10.40;;;-0.20;99.90;;;;;;5098101;28;20196;-76
2022/03/23 00:11:33;;;;;;;13.50;9.33;;;0.00;99.90;;;;;;5097758;28;20201;-77
2022/03/23 00:14:00;;;;;;;12.57;9.03;;;0.20;99.90;;;;;;5097747;28;20208;-77
2022/03/23 00:16:26;;;;;;;12.67;9.87;;;0.20;99.90;;;;;;5097712;28;20699;-77
2022/03/23 00:18:53;;;;;;;15.67;9.70;;;0.20;99.90;;;;;;5097633;28;20564;-77
2022/03/23 00:21:20;;;;;;;15.43;9.70;;;0.20;99.90;;;;;;5097456;28;20240;-77
2022/03/23 00:23:46;;;;;;;15.47;10.03;;;0.20;99.90;;;;;;5097432;28;20215;-77
2022/03/23 00:26:16;;;;;;;14.93;10.63;;;0.20;99.90;;;;;;5097866;28;20563;-77
2022/03/23 00:28:42;;;;;;;13.13;9.73;;;0.00;99.90;;;;;;5097762;28;20196;-77
2022/03/23 00:31:09;;;;;;;18.10;9.43;;;-0.10;99.90;;;;;;5097723;28;20200;-77
2022/03/23 00:33:36;;;;;;;15.50;10.00;;;-0.10;99.90;;;;;;5098925;28;20196;-78
2022/03/23 00:36:03;;;;;;;14.10;9.93;;;-0.20;99.90;;;;;;5105547;28;20260;-78
2022/03/23 00:38:30;;;;;;;14.77;9.90;;;-0.40;99.90;;;;;;5106714;28;20204;-78
2022/03/23 00:40:57;;;;;;;16.23;10.00;;;-0.50;99.90;;;;;;5107400;28;20645;-78
2022/03/23 00:43:25;;;;;;;14.83;9.57;;;-0.60;99.90;;;;;;5104782;28;20664;-78
2022/03/23 00:45:52;;;;;;;14.20;9.20;;;-0.70;99.90;;;;;;5107593;28;20708;-77
2022/03/23 00:48:18;;;;;;;15.17;9.83;;;-0.70;99.90;;;;;;5107508;28;20200;-77
2022/03/23 00:50:45;;;;;;;15.47;10.53;;;-0.80;99.90;;;;;;5107547;28;20200;-76
2022/03/23 00:53:12;;;;;;;11.80;9.03;;;-0.90;99.90;;;;;;5109070;28;20222;-77
2022/03/23 00:55:42;;;;;;;14.87;10.47;;;-0.90;99.90;;;;;;5110547;28;20200;-78
2022/03/23 00:58:09;;;;;;;14.90;10.30;;;-0.80;99.90;;;;;;5109426;28;20207;-77
2022/03/23 01:00:37;;;;;;;16.20;10.70;;;-0.80;99.90;;;;;;5107196;28;20220;-78
2022/03/23 01:03:05;;;;;;;20.00;10.43;;;-0.50;99.90;;;;;;5107235;28;20196;-78
2022/03/23 01:05:31;;;;;;;13.23;10.20;;;-0.30;99.90;;;;;;5105269;28;20200;-77
2022/03/23 01:07:59;;;;;;;16.50;10.33;;;-0.50;99.90;;;;;;5099832;28;20258;-77
2022/03/23 01:10:26;;;;;;;12.67;9.93;;;-0.70;99.90;;;;;;5099959;28;20667;-77
2022/03/23 01:12:54;;;;;;;16.63;10.27;;;-0.60;99.90;;;;;;5098631;28;20196;-77
2022/03/23 01:15:21;;;;;;;14.17;10.23;;;-0.70;99.90;;;;;;5097636;28;20206;-77
2022/03/23 01:17:49;;;;;;;13.20;9.53;;;-0.90;99.90;;;;;;5097008;28;20246;-77
2022/03/23 01:20:19;;;;;;;12.67;9.90;;;-0.80;99.90;;;;;;5097153;28;20286;-76
2022/03/23 01:22:47;;;;;;;16.87;10.27;;;-0.80;99.90;;;;;;5098406;28;20207;-77
2022/03/23 01:25:14;;;;;;;14.57;10.63;;;-0.90;99.90;;;;;;5098081;28;20197;-77
2022/03/23 01:27:43;;;;;;;15.40;10.17;;;-0.80;99.90;;;;;;5097218;28;20207;-76
2022/03/23 01:30:12;;;;;;;15.13;9.97;;;-0.60;99.90;;;;;;5097249;28;20207;-76
2022/03/23 01:32:40;;;;;;;15.43;10.00;;;-0.60;99.90;;;;;;5096521;28;20284;-77
2022/03/23 01:35:10;;;;;;;12.87;9.63;;;-0.50;99.90;;;;;;5096776;28;20209;-77
2022/03/23 01:37:37;;;;;;;16.23;10.20;;;-0.40;99.90;;;;;;5097023;28;20207;-77
2022/03/23 01:40:06;;;;;;;18.17;10.47;;;-0.30;99.90;;;;;;5095958;28;20247;-77
2022/03/23 01:42:32;;;;;;;15.17;9.70;;;-0.30;99.90;;;;;;5096276;28;20681;-77
2022/03/23 01:44:59;;;;;;;16.97;9.73;;;-0.20;99.90;;;;;;5095840;28;20715;-77
2022/03/23 01:47:26;;;;;;;15.87;9.90;;;-0.20;99.90;;;;;;5096524;28;20271;-77
2022/03/23 01:49:55;;;;;;;16.27;10.27;;;-0.20;99.90;;;;;;5097618;28;20250;-76
2022/03/23 01:52:25;;;;;;;13.67;9.83;;;-0.20;99.90;;;;;;5096791;28;20249;-76
2022/03/23 01:54:52;;;;;;;14.50;9.40;;;-0.20;99.90;;;;;;5097015;28;20257;-77
2022/03/23 01:57:20;;;;;;;15.73;9.33;;;-0.30;99.90;;;;;;5096823;28;20201;-77
2022/03/23 01:59:48;;;;;;;13.27;9.20;;;-0.40;99.90;;;;;;5096575;28;20197;-77
2022/03/23 02:02:14;;;;;;;12.83;9.23;;;-0.50;99.90;;;;;;5097224;28;20246;-77
2022/03/23 02:04:41;;;;;;;14.93;9.70;;;-0.60;99.90;;;;;;5096514;28;20249;-77
2022/03/23 02:07:08;;;;;;;12.70;8.83;;;-0.80;99.90;;;;;;5096397;28;20708;-77
2022/03/23 02:09:36;;;;;;;13.43;9.63;;;-1.00;99.90;;;;;;5096611;28;20200;-76
2022/03/23 02:12:08;;;;;;;12.77;9.47;;;-0.90;99.90;;;;;;5097122;28;20201;-76
2022/03/23 02:14:35;;;;;;;15.50;9.87;;;-0.90;99.90;;;;;;5096741;28;20196;-77
2022/03/23 02:17:01;;;;;;;15.40;10.90;;;-1.00;99.90;;;;;;5096509;28;20228;-77
2022/03/23 02:19:28;;;;;;;14.23;9.50;;;-0.80;99.90;;;;;;5096115;28;20651;-77
2022/03/23 02:21:57;;;;;;;14.53;10.03;;;-1.00;99.90;;;;;;5096095;28;20709;-77
2022/03/23 02:24:26;;;;;;;13.17;9.20;;;-1.10;99.90;;;;;;5095164;28;20226;-77
2022/03/23 02:26:52;;;;;;;14.27;9.30;;;-1.10;99.90;;;;;;5095705;28;20193;-77
2022/03/23 02:29:20;;;;;;;11.87;8.83;;;-1.10;99.90;;;;;;5096192;28;20651;-77
2022/03/23 02:31:47;;;;;;;11.60;8.83;;;-1.10;99.90;;;;;;5096003;28;20205;-77
2022/03/23 02:34:13;;;;;;;13.20;9.10;;;-1.10;99.90;;;;;;5096536;28;20200;-77
2022/03/23 02:36:40;;;;;;;16.27;9.73;;;-1.00;99.90;;;;;;5096210;28;20201;-77
2022/03/23 02:39:10;;;;;;;15.60;9.83;;;-1.00;99.90;;;;;;5096295;28;20664;-76
2022/03/23 02:41:36;;;;;;;16.97;10.03;;;-0.90;99.90;;;;;;5095276;27;20231;-77
2022/03/23 02:44:03;;;;;;;18.67;10.53;;;-1.10;99.90;;;;;;5100209;28;20196;-77
2022/03/23 02:46:35;;;;;;;18.43;9.70;;;-1.00;99.90;;;;;;5102608;28;20227;-77
2022/03/23 02:49:02;;;;;;;14.00;9.87;;;-1.00;99.90;;;;;;5102916;28;20200;-77
2022/03/23 02:51:29;;;;;;;14.70;9.77;;;-1.20;99.90;;;;;;5103043;28;20200;-77
2022/03/23 03:02:22;;;;;;;23.77;10.90;;;-1.30;99.90;;;;;;5103656;28;20721;-77
2022/03/23 03:04:49;;;;;;;15.57;10.20;;;-1.40;99.90;;;;;;5104888;28;20241;-77
2022/03/23 03:07:16;;;;;;;15.13;10.30;;;-1.40;99.90;;;;;;5104898;28;20196;-77
2022/03/23 03:09:43;;;;;;;16.30;11.23;;;-1.40;99.90;;;;;;5106188;28;20242;-77
2022/03/23 03:12:12;;;;;;;17.00;10.57;;;-1.40;99.90;;;;;;5101957;28;20204;-77
2022/03/23 03:14:39;;;;;;;16.03;10.07;;;-1.50;99.90;;;;;;5099976;28;20201;-77
2022/03/23 03:17:07;;;;;;;13.13;9.80;;;-1.60;99.90;;;;;;5099626;28;20193;-77
2022/03/23 03:19:34;;;;;;;14.43;9.37;;;-1.70;99.90;;;;;;5097781;28;20200;-77
2022/03/23 03:22:00;;;;;;;15.17;10.40;;;-1.70;99.90;;;;;;5101942;28;20240;-77
2022/03/23 03:24:27;;;;;;;15.00;10.40;;;-1.70;99.90;;;;;;5103813;28;20196;-77
2022/03/23 03:26:54;;;;;;;14.03;9.97;;;-1.70;99.90;;;;;;5100610;28;20553;-77
2022/03/23 03:29:23;;;;;;;15.70;11.03;;;-1.80;99.90;;;;;;5103995;28;20277;-77
2022/03/23 03:31:50;;;;;;;18.43;10.70;;;-1.70;99.90;;;;;;5102427;28;20208;-78
2022/03/23 03:34:17;;;;;;;17.57;11.07;;;-1.70;99.90;;;;;;5108263;28;20644;-77
2022/03/23 03:36:44;;;;;;;15.23;9.73;;;-1.80;99.90;;;;;;5104643;28;20253;-78
2022/03/23 03:39:10;;;;;;;15.30;10.43;;;-1.80;99.90;;;;;;5107137;28;20196;-78
2022/03/23 03:41:39;;;;;;;15.17;10.20;;;-1.80;99.90;;;;;;5104167;28;20250;-77
2022/03/23 03:44:11;;;;;;;16.70;10.57;;;-1.80;99.90;;;;;;5106489;28;20538;-77
2022/03/23 03:46:40;;;;;;;16.17;10.47;;;-1.90;99.90;;;;;;5104546;28;20259;-77
2022/03/23 03:49:07;;;;;;;15.83;10.10;;;-1.90;99.90;;;;;;5106615;28;20195;-78
2022/03/23 03:51:34;;;;;;;14.47;10.40;;;-2.00;99.90;;;;;;5104708;28;20196;-78
2022/03/23 03:54:01;;;;;;;18.60;10.37;;;-2.00;99.90;;;;;;5106050;28;20223;-78
2022/03/23 03:56:28;;;;;;;13.13;9.43;;;-2.10;99.90;;;;;;5104097;28;20211;-78
2022/03/23 03:58:54;;;;;;;13.03;9.57;;;-2.20;99.90;;;;;;5105834;28;20196;-78
2022/03/23 04:01:23;;;;;;;16.77;10.00;;;-2.20;99.90;;;;;;5105846;28;20224;-78
2022/03/23 04:03:51;;;;;;;15.57;9.80;;;-2.20;99.90;;;;;;5110828;28;20238;-77
2022/03/23 04:06:17;;;;;;;14.43;10.00;;;-2.20;99.90;;;;;;5109599;28;20218;-77
2022/03/23 04:08:44;;;;;;;14.20;10.37;;;-2.00;99.90;;;;;;5109540;28;20227;-78
2022/03/23 04:11:10;;;;;;;12.93;9.80;;;-2.10;99.90;;;;;;5107968;28;20196;-77
2022/03/23 04:13:37;;;;;;;16.77;10.87;;;-2.30;99.90;;;;;;5106026;28;20196;-77
2022/03/23 04:16:04;;;;;;;15.63;11.10;;;-2.30;99.90;;;;;;5104740;28;20196;-78
2022/03/23 04:18:31;;;;;;;14.30;9.90;;;-2.30;99.90;;;;;;5102880;28;20204;-77
2022/03/23 04:20:59;;;;;;;14.63;10.40;;;-2.40;99.90;;;;;;5102089;28;20282;-77
2022/03/23 04:23:26;;;;;;;14.37;10.00;;;-2.30;99.90;;;;;;5103872;28;20249;-77
2022/03/23 04:25:52;;;;;;;14.70;10.03;;;-2.40;99.90;;;;;;5107095;28;20204;-78
2022/03/23 04:28:20;;;;;;;16.40;9.87;;;-2.50;99.90;;;;;;5104022;28;20222;-77
2022/03/23 04:30:47;;;;;;;13.87;9.93;;;-2.40;99.90;;;;;;5101706;28;20207;-77
2022/03/23 04:33:14;;;;;;;14.97;9.87;;;-2.20;99.90;;;;;;5109472;28;20659;-78
2022/03/23 04:35:41;;;;;;;16.10;10.50;;;-2.00;99.90;;;;;;5109973;28;20200;-78
2022/03/23 04:38:09;;;;;;;14.23;10.20;;;-2.30;99.90;;;;;;5111011;28;20196;-78
2022/03/23 04:40:36;;;;;;;14.90;10.20;;;-2.30;99.90;;;;;;5111679;28;20196;-78
2022/03/23 04:43:03;;;;;;;15.60;10.70;;;-2.30;99.90;;;;;;5110997;28;20257;-78
2022/03/23 04:45:29;;;;;;;18.77;10.43;;;-2.10;99.90;;;;;;5111623;28;20196;-78
2022/03/23 04:47:56;;;;;;;16.67;9.83;;;-2.30;99.90;;;;;;5111172;28;20197;-78
2022/03/23 04:50:23;;;;;;;17.27;10.20;;;-2.40;99.90;;;;;;5111856;28;20196;-78
2022/03/23 04:52:52;;;;;;;14.53;9.97;;;-2.50;99.90;;;;;;5107757;28;20207;-78
2022/03/23 04:55:20;;;;;;;15.93;10.47;;;-2.60;99.90;;;;;;5104804;28;20197;-78
2022/03/23 04:57:47;;;;;;;12.00;9.27;;;-2.50;99.90;;;;;;5103514;28;20196;-77
2022/03/23 05:00:16;;;;;;;15.97;10.43;;;-2.60;99.90;;;;;;5102910;28;20250;-78
2022/03/23 05:02:44;;;;;;;14.97;10.67;;;-2.60;99.90;;;;;;5103872;28;20224;-78
2022/03/23 05:05:12;;;;;;;16.63;10.87;;;-2.70;99.90;;;;;;5103963;28;20200;-78
2022/03/23 05:07:39;;;;;;;16.63;10.40;;;-2.60;99.90;;;;;;5103791;28;20291;-77
2022/03/23 05:10:07;;;;;;;20.03;9.87;;;-2.50;99.90;;;;;;5103231;28;20197;-78
2022/03/23 05:12:35;;;;;;;16.67;10.20;;;-2.60;99.90;;;;;;5104397;28;20196;-78
2022/03/23 05:15:04;;;;;;;15.67;10.23;;;-2.60;99.90;;;;;;5103429;28;20341;-78
2022/03/23 05:17:31;;;;;;;19.50;11.10;;;-2.60;99.90;;;;;;5102483;28;20193;-78
2022/03/23 05:19:57;;;;;;;16.83;11.83;;;-2.50;99.90;;;;;;5103678;28;20197;-77
2022/03/23 05:22:25;;;;;;;21.07;11.73;;;-2.60;99.90;;;;;;5105503;28;20220;-77
2022/03/23 05:24:51;;;;;;;18.53;11.60;;;-2.60;99.90;;;;;;5106970;28;20192;-79
2022/03/23 05:27:18;;;;;;;16.17;11.13;;;-2.50;99.90;;;;;;5110386;28;20219;-77
2022/03/23 05:29:46;;;;;;;17.53;11.63;;;-2.20;99.90;;;;;;5111312;28;20196;-79
2022/03/23 05:32:16;;;;;;;19.17;11.53;;;-2.30;99.90;;;;;;5108229;28;20226;-77
2022/03/23 05:34:43;;;;;;;20.17;12.10;;;-2.30;99.90;;;;;;5100863;28;20196;-76
2022/03/23 05:37:10;;;;;;;22.17;11.93;;;-2.30;99.90;;;;;;5103134;28;20196;-77
2022/03/23 05:39:37;;;;;;;21.93;11.70;;;-2.00;99.90;;;;;;5105387;28;20223;-78
2022/03/23 05:42:05;;;;;;;18.60;11.53;;;-2.10;99.90;;;;;;5104288;28;20227;-77
2022/03/23 05:44:32;;;;;;;17.90;11.63;;;-2.10;99.90;;;;;;5105652;28;20260;-77
2022/03/23 05:47:00;;;;;;;17.63;11.73;;;-1.90;99.90;;;;;;5104696;28;20219;-78
2022/03/23 05:49:27;;;;;;;17.77;11.50;;;-1.90;99.90;;;;;;5104645;28;20672;-78
2022/03/23 05:51:54;;;;;;;15.70;11.00;;;-1.90;99.90;;;;;;5102368;28;20237;-78
2022/03/23 05:54:20;;;;;;;15.33;10.43;;;-1.60;99.90;;;;;;5101369;28;20192;-77
2022/03/23 05:56:47;;;;;;;17.27;10.60;;;-1.30;99.90;;;;;;5103297;28;20222;-78
2022/03/23 05:59:14;;;;;;;17.93;12.73;;;-1.20;99.90;;;;;;5106421;28;20196;-79
2022/03/23 06:01:40;;;;;;;31.40;21.30;;;-1.20;99.90;;;;;;5107134;28;20561;-78
2022/03/23 06:04:09;;;;;;;57.90;41.47;;;-1.00;99.90;;;;;;5107900;28;20226;-78
2022/03/23 06:06:35;;;;;;;51.10;34.93;;;-1.00;99.90;;;;;;5106085;28;20286;-78
2022/03/23 06:09:02;;;;;;;39.03;27.00;;;-1.10;99.90;;;;;;5107138;28;20219;-78
2022/03/23 06:11:29;;;;;;;32.53;23.50;;;-1.10;99.90;;;;;;5107016;28;20205;-78
2022/03/23 06:13:56;;;;;;;34.13;21.57;;;-1.10;99.90;;;;;;5105669;28;20222;-78
2022/03/23 06:16:22;;;;;;;30.23;19.40;;;-1.00;99.90;;;;;;5106250;28;20231;-78
2022/03/23 06:18:49;;;;;;;23.87;14.97;;;-0.70;99.90;;;;;;5105222;28;20269;-77
2022/03/23 06:21:17;;;;;;;21.53;14.80;;;-0.60;99.90;;;;;;5105400;28;20224;-78
2022/03/23 06:23:44;;;;;;;20.03;13.07;;;-0.50;99.90;;;;;;5104981;28;20192;-78
2022/03/23 06:26:11;;;;;;;20.77;13.70;;;-0.40;99.90;;;;;;5104919;28;20204;-77
2022/03/23 06:28:37;;;;;;;20.40;14.50;;;-0.30;99.90;;;;;;5104247;28;20222;-77
2022/03/23 06:31:04;;;;;;;19.33;12.73;;;-0.30;99.90;;;;;;5105670;28;20222;-77
2022/03/23 06:33:31;;;;;;;18.90;12.03;;;-0.20;99.90;;;;;;5102835;28;20634;-77
2022/03/23 06:35:58;;;;;;;19.43;12.20;;;-0.20;99.90;;;;;;5102528;28;20196;-77
2022/03/23 06:38:26;;;;;;;16.60;11.70;;;-0.10;99.90;;;;;;5105338;28;20258;-77
2022/03/23 06:40:52;;;;;;;22.03;12.40;;;0.00;99.90;;;;;;5105247;28;20222;-77
2022/03/23 06:43:19;;;;;;;15.20;10.87;;;0.20;99.90;;;;;;5104691;28;20242;-78
2022/03/23 06:45:46;;;;;;;17.20;11.10;;;0.40;99.90;;;;;;5104524;28;20270;-77
2022/03/23 06:48:12;;;;;;;15.43;10.93;;;0.60;99.90;;;;;;5103994;28;20638;-77
2022/03/23 06:50:39;;;;;;;19.43;10.93;;;0.60;99.90;;;;;;5103745;28;20200;-77
2022/03/23 06:53:06;;;;;;;11.97;9.57;;;0.80;99.90;;;;;;5103714;28;20196;-77
2022/03/23 06:55:34;;;;;;;17.13;10.23;;;0.90;99.90;;;;;;5102881;28;20562;-77
2022/03/23 06:58:00;;;;;;;14.80;10.73;;;1.00;99.90;;;;;;5102756;28;20192;-77
2022/03/23 07:00:27;;;;;;;13.60;9.30;;;1.20;99.90;;;;;;5104102;28;20231;-78
2022/03/23 07:02:54;;;;;;;14.93;9.20;;;1.30;99.90;;;;;;5102315;28;20224;-78
2022/03/23 07:05:20;;;;;;;15.47;9.90;;;1.40;99.90;;;;;;5104467;28;20229;-77
2022/03/23 07:10:34;;;;;;;16.90;9.40;;;1.70;99.90;;;;;;5105220;28;20214;-78
2022/03/23 07:13:01;;;;;;;17.23;10.43;;;1.80;99.90;;;;;;5103960;28;20211;-78
2022/03/23 07:15:28;;;;;;;15.43;10.63;;;1.90;99.90;;;;;;5104548;28;20589;-78
2022/03/23 07:17:55;;;;;;;13.83;9.70;;;2.10;99.90;;;;;;5104577;28;20302;-78
2022/03/23 07:20:22;;;;;;;16.53;9.03;;;2.30;99.90;;;;;;5103726;28;20254;-77
2022/03/23 07:22:48;;;;;;;13.13;9.67;;;2.50;99.90;;;;;;5105845;28;20212;-79
2022/03/23 07:25:15;;;;;;;13.77;9.50;;;2.60;99.90;;;;;;5104860;28;20705;-78
2022/03/23 07:27:43;;;;;;;11.47;9.43;;;2.80;99.90;;;;;;5103514;28;20196;-78
2022/03/23 07:30:10;;;;;;;12.23;9.50;;;3.00;99.90;;;;;;5102069;28;20196;-78
2022/03/23 07:32:38;;;;;;;17.93;9.33;;;3.20;99.90;;;;;;5102354;28;20200;-79
2022/03/23 07:35:06;;;;;;;12.03;9.13;;;3.30;99.90;;;;;;5099220;28;20231;-78
2022/03/23 07:37:33;;;;;;;10.63;8.63;;;3.50;99.90;;;;;;5098164;28;20249;-78
2022/03/23 07:39:59;;;;;;;12.80;8.40;;;3.60;99.90;;;;;;5098391;28;20617;-78
2022/03/23 07:42:26;;;;;;;12.97;8.30;;;3.70;99.90;;;;;;5099794;28;20219;-78
2022/03/23 07:44:54;;;;;;;11.57;8.47;;;3.70;99.90;;;;;;5098737;28;20197;-79
2022/03/23 07:47:21;;;;;;;14.63;8.33;;;3.80;99.90;;;;;;5099247;28;20195;-78
2022/03/23 07:49:47;;;;;;;11.27;8.70;;;4.10;99.90;;;;;;5098882;28;20195;-78
2022/03/23 07:52:14;;;;;;;12.23;9.57;;;4.30;99.00;;;;;;5094398;28;20257;-78
2022/03/23 07:54:41;;;;;;;13.30;8.73;;;4.60;99.40;;;;;;5096854;28;20689;-78
2022/03/23 07:57:07;;;;;;;11.67;9.33;;;5.00;96.50;;;;;;5096227;28;20667;-77
2022/03/23 07:59:34;;;;;;;11.43;9.33;;;5.30;92.80;;;;;;5096459;28;20250;-77
2022/03/23 08:02:02;;;;;;;13.27;9.87;;;5.60;84.20;;;;;;5094953;28;20324;-78
2022/03/23 08:04:29;;;;;;;11.83;9.07;;;5.80;75.30;;;;;;5093307;28;20226;-77
2022/03/23 08:06:56;;;;;;;14.80;9.50;;;6.10;79.30;;;;;;5092896;28;20249;-78
2022/03/23 08:09:22;;;;;;;12.93;9.83;;;6.50;74.60;;;;;;5092609;28;20202;-76
2022/03/23 08:11:49;;;;;;;16.30;10.70;;;6.80;76.30;;;;;;5092516;28;20249;-79
2022/03/23 08:14:16;;;;;;;14.20;9.77;;;7.00;73.60;;;;;;5092628;28;20671;-80
2022/03/23 08:16:42;;;;;;;15.60;11.37;;;7.30;58.70;;;;;;5092289;28;20784;-77
2022/03/23 08:19:10;;;;;;;12.70;10.87;;;7.50;60.60;;;;;;5096041;28;20676;-77
2022/03/23 08:21:37;;;;;;;12.73;10.57;;;7.80;56.40;;;;;;5095648;28;20565;-81
2022/03/23 08:24:04;;;;;;;18.03;11.30;;;8.10;52.80;;;;;;5095015;28;20224;-80
2022/03/23 08:26:31;;;;;;;15.17;11.37;;;8.40;46.40;;;;;;5096512;28;20249;-78
2022/03/23 08:28:57;;;;;;;16.90;10.93;;;8.60;47.10;;;;;;5095972;28;20196;-77
2022/03/23 08:31:24;;;;;;;17.67;11.43;;;8.90;44.20;;;;;;5095632;28;20253;-77
2022/03/23 08:33:51;;;;;;;14.63;11.03;;;9.20;42.70;;;;;;5095957;28;20329;-77
2022/03/23 08:36:18;;;;;;;17.27;11.13;;;9.40;46.80;;;;;;5095766;28;20200;-77
2022/03/23 08:38:45;;;;;;;15.83;10.70;;;9.70;41.50;;;;;;5092774;28;20201;-77
2022/03/23 08:41:13;;;;;;;20.43;12.33;;;10.00;36.10;;;;;;5093959;28;20196;-77
2022/03/23 08:43:41;;;;;;;18.93;11.60;;;10.20;34.60;;;;;;5095214;28;20698;-76
2022/03/23 08:46:07;;;;;;;17.10;11.30;;;10.40;31.00;;;;;;5095397;28;20659;-77
2022/03/23 08:48:34;;;;;;;12.73;11.40;;;10.60;31.40;;;;;;5095345;28;20200;-77
2022/03/23 08:51:01;;;;;;;16.13;11.27;;;10.80;29.80;;;;;;5095451;28;20196;-77
2022/03/23 08:53:29;;;;;;;14.97;11.27;;;11.20;29.40;;;;;;5095366;28;20200;-77
2022/03/23 08:55:57;;;;;;;15.50;11.23;;;11.60;28.00;;;;;;5095346;28;20197;-77
2022/03/23 08:58:24;;;;;;;16.70;12.20;;;11.80;29.50;;;;;;5095359;28;20200;-77
2022/03/23 09:00:50;;;;;;;17.77;12.10;;;12.10;27.20;;;;;;5095552;28;20200;-77
2022/03/23 09:03:17;;;;;;;13.43;11.57;;;12.20;29.10;;;;;;5095130;28;20632;-77
2022/03/23 09:05:44;;;;;;;16.27;13.17;;;12.40;27.10;;;;;;5094135;28;20437;-79
2022/03/23 09:08:11;;;;;;;16.53;12.67;;;12.70;26.00;;;;;;5094920;28;20652;-77
2022/03/23 09:10:39;;;;;;;17.87;12.90;;;12.80;25.80;;;;;;5095245;28;20196;-77
2022/03/23 09:13:05;;;;;;;16.97;12.60;;;13.00;25.10;;;;;;5094923;28;20823;-78
2022/03/23 09:15:32;;;;;;;19.10;12.60;;;13.30;24.00;;;;;;5096566;28;20204;-73
2022/03/23 09:18:00;;;;;;;15.93;13.13;;;13.60;25.40;;;;;;5094364;28;20204;-76
2022/03/23 09:20:28;;;;;;;15.87;13.27;;;13.60;23.40;;;;;;5093778;28;20247;-81
2022/03/23 09:22:55;;;;;;;19.53;13.07;;;13.70;23.70;;;;;;5095182;28;20698;-80
2022/03/23 09:25:22;;;;;;;17.37;14.23;;;13.90;23.50;;;;;;5095273;28;20196;-80
2022/03/23 09:27:51;;;;;;;13.70;12.23;;;14.20;25.60;;;;;;5094191;28;20279;-80
2022/03/23 09:30:18;;;;;;;15.10;12.67;;;14.80;23.80;;;;;;5095188;28;20197;-79
2022/03/23 09:32:46;;;;;;;17.50;13.32;;;15.40;24.00;;;;;;5094556;28;20655;-76
2022/03/23 09:35:14;;;;;;;17.17;13.57;;;15.80;24.40;;;;;;5094702;28;20200;-76
2022/03/23 09:37:51;;;;;;;16.20;13.63;;;16.10;23.00;;;;;;5094601;28;20197;-76
2022/03/23 09:40:23;;;;;;;17.90;13.60;;;16.30;22.60;;;;;;5094654;28;20607;-76
2022/03/23 09:42:51;;;;;;;18.70;14.10;;;16.40;20.80;;;;;;5094605;28;20220;-76
2022/03/23 09:45:31;;;;;;;16.20;13.85;;;16.60;20.90;;;;;;5094467;28;20205;-76
2022/03/23 09:47:58;;;;;;;15.85;14.13;;;16.60;20.90;;;;;;5094344;28;20196;-77
2022/03/23 09:50:28;;;;;;;17.25;14.05;;;17.10;21.00;;;;;;5094167;28;20222;-72
2022/03/23 09:52:54;;;;;;;18.98;14.00;;;17.60;19.50;;;;;;5094459;28;20253;-74
2022/03/23 09:55:22;;;;;;;15.20;13.60;;;17.70;18.60;;;;;;5094377;28;20196;-75
2022/03/23 09:57:48;;;;;;;17.13;13.25;;;18.20;18.50;;;;;;5090425;28;20192;-74
2022/03/23 10:00:18;;;;;;;14.75;13.07;;;18.20;15.90;;;;;;5092501;28;20598;-74
2022/03/23 10:03:32;;;;;;;17.27;13.75;;;18.60;15.40;;;;;;5093427;28;20271;-74
2022/03/23 10:06:22;;;;;;;15.18;13.25;;;19.10;14.90;;;;;;5088486;28;20664;-73
2022/03/23 10:09:10;;;;;;;15.68;13.48;;;19.00;14.00;;;;;;5093527;28;20716;-74
2022/03/23 10:12:45;;;;;;;18.00;13.15;;;19.10;13.60;;;;;;5093848;28;20252;-74
2022/03/23 10:16:17;;;;;;;15.82;13.70;;;19.30;12.60;;;;;;5093793;28;20233;-73
2022/03/23 10:18:56;;;;;;;14.40;13.00;;;19.10;13.00;;;;;;5093799;28;20204;-74
2022/03/23 10:21:25;;;;;;;13.63;12.35;;;19.60;12.60;;;;;;5093310;28;20228;-75
2022/03/23 10:24:30;;;;;;;16.05;13.82;;;19.90;13.00;;;;;;5093294;28;20770;-73
2022/03/23 10:26:58;;;;;;;15.27;13.75;;;19.60;11.20;;;;;;5093334;28;20192;-73
2022/03/23 10:29:27;;;;;;;14.63;13.02;;;19.30;11.70;;;;;;5093393;28;20285;-75
2022/03/23 10:32:03;;;;;;;14.93;13.07;;;19.30;11.10;;;;;;5093301;28;20211;-75
2022/03/23 10:34:42;;;;;;;14.23;12.60;;;18.90;11.40;;;;;;5093360;28;20272;-75
2022/03/23 10:37:09;;;;;;;14.38;12.88;;;19.10;11.10;;;;;;5093463;28;20245;-75
2022/03/23 10:39:36;;;;;;;14.98;12.73;;;19.90;11.50;;;;;;5092596;28;20559;-76
2022/03/23 10:42:08;;;;;;;14.60;12.60;;;19.90;11.10;;;;;;5092888;28;20192;-75
2022/03/23 10:44:34;;;;;;;14.52;11.95;;;20.60;11.80;;;;;;5092884;28;20292;-74
2022/03/23 10:47:03;;;;;;;13.20;11.85;;;21.40;10.20;;;;;;5093339;28;20251;-74
2022/03/23 10:49:32;;;;;;;13.05;11.85;;;20.80;9.40;;;;;;5093213;28;20647;-74
2022/03/23 10:52:11;;;;;;;16.17;12.57;;;21.30;9.30;;;;;;5093391;28;20197;-75
2022/03/23 10:54:38;;;;;;;13.80;12.40;;;22.20;8.70;;;;;;5093097;28;20212;-75
2022/03/23 10:57:04;;;;;;;13.55;12.25;;;22.90;9.10;;;;;;5092954;28;20597;-73
2022/03/23 10:59:32;;;;;;;13.10;11.77;;;24.20;8.60;;;;;;5093069;28;20551;-76
2022/03/23 11:02:00;;;;;;;13.48;12.07;;;24.80;7.80;;;;;;5093177;28;20192;-75
2022/03/23 11:04:30;;;;;;;13.90;12.50;;;25.20;7.50;;;;;;5092993;28;20686;-75
2022/03/23 11:06:58;;;;;;;14.23;12.80;;;25.30;7.20;;;;;;5093064;28;20202;-75
2022/03/23 11:18:04;;;;;;;12.65;11.45;;;26.00;6.10;;;;;;5093088;28;20190;-74
2022/03/23 11:20:41;;;;;;;12.82;11.73;;;26.90;5.90;;;;;;5092535;28;20223;-74
2022/03/23 11:23:17;;;;;;;12.32;11.32;;;27.40;5.00;;;;;;5092745;28;20219;-74
2022/03/23 11:25:45;;;;;;;12.63;11.52;;;27.60;4.60;;;;;;5092472;28;20219;-74
2022/03/23 11:28:13;;;;;;;13.20;11.88;;;27.80;4.40;;;;;;5092309;28;20619;-74
2022/03/23 11:30:40;;;;;;;13.50;11.73;;;27.60;4.00;;;;;;5092755;28;20619;-74
2022/03/23 11:33:10;;;;;;;13.55;12.35;;;27.20;4.30;;;;;;5092968;28;20204;-73
2022/03/23 11:35:46;;;;;;;16.63;12.02;;;27.70;4.20;;;;;;5092748;28;20214;-74
2022/03/23 11:38:13;;;;;;;12.32;11.30;;;28.10;4.00;;;;;;5092791;28;20196;-74
2022/03/23 11:40:41;;;;;;;12.30;11.07;;;28.80;3.40;;;;;;5093134;28;20663;-74
2022/03/23 11:43:09;;;;;;;12.80;11.48;;;29.00;3.30;;;;;;5093200;28;20216;-74
2022/03/23 11:45:37;;;;;;;12.75;11.50;;;28.90;2.80;;;;;;5093206;28;20192;-75
2022/03/23 11:48:14;;;;;;;12.80;11.50;;;28.90;2.80;;;;;;5092584;28;20200;-74
2022/03/23 11:51:03;;;;;;;16.95;12.25;;;28.90;2.70;;;;;;5092539;28;20204;-74
2022/03/23 11:53:38;;;;;;;12.68;11.45;;;29.10;2.90;;;;;;5095383;28;20200;-74
2022/03/23 11:56:06;;;;;;;12.57;11.07;;;29.30;2.70;;;;;;5096670;28;20264;-75
2022/03/23 11:58:37;;;;;;;12.00;11.00;;;28.80;2.40;;;;;;5096391;28;20199;-74
2022/03/23 12:01:12;;;;;;;14.10;12.02;;;29.10;2.10;;;;;;5096453;28;20230;-74
2022/03/23 12:03:53;;;;;;;12.48;11.25;;;28.00;2.80;;;;;;5095982;28;20234;-75
2022/03/23 12:06:23;;;;;;;13.35;11.82;;;28.30;2.40;;;;;;5096404;28;20278;-74
2022/03/23 12:08:52;;;;;;;12.93;11.80;;;28.50;2.70;;;;;;5096280;28;20192;-74
2022/03/23 12:11:38;;;;;;;14.10;12.13;;;29.50;2.70;;;;;;5095988;28;20279;-74
2022/03/23 12:14:07;;;;;;;13.32;12.05;;;30.40;2.50;;;;;;5086891;28;20204;-74
2022/03/23 12:17:11;;;;;;;13.35;12.18;;;29.80;1.50;;;;;;5095920;28;20238;-75
2022/03/23 12:20:14;;;;;;;14.00;11.23;;;30.10;2.00;;;;;;5095918;28;20207;-74
2022/03/23 12:23:17;;;;;;;12.68;11.00;;;30.80;1.50;;;;;;5095824;28;20196;-75
2022/03/23 12:25:56;;;;;;;13.85;11.40;;;30.40;1.00;;;;;;5096018;28;20194;-75
2022/03/23 12:28:35;;;;;;;12.38;11.27;;;31.00;1.00;;;;;;5096065;28;20195;-75
2022/03/23 12:31:13;;;;;;;12.88;11.57;;;30.80;1.00;;;;;;5095907;28;20195;-75
2022/03/23 12:34:18;;;;;;;13.02;11.18;;;31.40;1.40;;;;;;5095944;28;20204;-75
2022/03/23 12:37:00;;;;;;;12.32;11.32;;;31.20;1.00;;;;;;5095686;28;20196;-74
2022/03/23 12:39:40;;;;;;;14.65;11.55;;;31.30;1.00;;;;;;5095971;28;20252;-74
2022/03/23 12:42:22;;;;;;;14.88;12.15;;;31.90;1.00;;;;;;5095787;28;20600;-75
2022/03/23 12:45:01;;;;;;;13.05;11.80;;;32.50;1.00;;;;;;5095547;28;20228;-75
2022/03/23 12:47:30;;;;;;;11.88;10.88;;;32.80;1.00;;;;;;5095715;28;20191;-75
2022/03/23 12:58:26;;;;;;;12.77;11.45;;;32.80;1.00;;;;;;5095304;28;20199;-75
2022/03/23 13:00:56;;;;;;;12.65;11.45;;;33.20;1.00;;;;;;5095790;28;20192;-74
2022/03/23 13:03:58;;;;;;;12.90;11.90;;;33.10;1.00;;;;;;5094902;28;20231;-75
2022/03/23 13:06:39;;;;;;;16.42;12.35;;;33.00;1.00;;;;;;5095335;28;20202;-74
2022/03/23 13:09:10;;;;;;;13.15;11.95;;;33.10;1.00;;;;;;5095191;28;20203;-74
2022/03/23 13:11:39;;;;;;;12.90;11.82;;;33.10;1.00;;;;;;5095140;28;20278;-74
2022/03/23 13:14:07;;;;;;;12.90;11.85;;;34.50;1.00;;;;;;5094966;28;20199;-74